createdAt,value
2022-08-28T00:01:08.319Z,17.53
2022-08-28T00:03:36.975Z,17.53
2022-08-28T00:06:08.319Z,17.56
2022-08-28T00:08:36.717Z,17.50
2022-08-28T00:11:05.426Z,17.47
2022-08-28T00:13:34.170Z,17.46
2022-08-28T00:16:02.760Z,17.44
2022-08-28T00:18:32.474Z,17.47
2022-08-28T00:21:01.190Z,17.47
2022-08-28T00:23:42.939Z,17.47
2022-08-28T00:26:32.706Z,17.48
2022-08-28T00:29:00.045Z,17.52
2022-08-28T00:31:28.365Z,17.50
2022-08-28T00:33:56.819Z,17.51
2022-08-28T00:36:25.568Z,17.53
2022-08-28T00:38:55.837Z,17.54
2022-08-28T00:41:25.023Z,17.52
2022-08-28T00:44:08.343Z,17.32
2022-08-28T00:46:38.534Z,17.41
2022-08-28T00:49:09.736Z,17.44
2022-08-28T00:51:56.983Z,17.39
2022-08-28T00:54:29.619Z,17.36
2022-08-28T00:56:58.818Z,17.34
2022-08-28T00:59:28.323Z,17.33
2022-08-28T01:01:59.641Z,17.30
2022-08-28T01:04:32.431Z,17.27
2022-08-28T01:07:03.593Z,17.24
2022-08-28T01:09:34.897Z,17.23
2022-08-28T01:12:08.719Z,17.19
2022-08-28T01:14:40.382Z,17.20
2022-08-28T01:17:10.592Z,17.10
2022-08-28T01:19:42.821Z,17.10
2022-08-28T01:22:19.664Z,17.13
2022-08-28T01:24:51.657Z,17.16
2022-08-28T01:27:20.405Z,17.17
2022-08-28T01:29:52.309Z,17.19
2022-08-28T01:32:36.069Z,17.21
2022-08-28T01:35:06.304Z,17.24
2022-08-28T01:37:34.513Z,17.25
2022-08-28T01:40:05.266Z,17.30
2022-08-28T01:42:38.759Z,17.27
2022-08-28T01:45:11.315Z,17.19
2022-08-28T01:47:40.260Z,17.21
2022-08-28T01:50:11.250Z,17.15
2022-08-28T01:52:40.528Z,17.00
2022-08-28T01:55:12.055Z,17.15
2022-08-28T01:57:45.170Z,17.16
2022-08-28T02:00:14.989Z,17.19
2022-08-28T02:02:43.654Z,17.17
2022-08-28T02:05:12.842Z,17.16
2022-08-28T02:07:41.381Z,17.15
2022-08-28T02:10:12.195Z,17.14
2022-08-28T02:12:41.254Z,17.12
2022-08-28T02:15:10.317Z,17.08
2022-08-28T02:17:39.251Z,17.07
2022-08-28T02:20:08.661Z,17.02
2022-08-28T02:22:37.589Z,17.02
2022-08-28T02:25:07.690Z,17.02
2022-08-28T02:27:38.447Z,17.03
2022-08-28T02:30:09.700Z,17.05
2022-08-28T02:32:38.230Z,17.04
2022-08-28T02:35:11.905Z,17.03
2022-08-28T02:37:44.472Z,17.05
2022-08-28T02:40:18.479Z,17.08
2022-08-28T02:42:48.475Z,17.09
2022-08-28T02:45:17.956Z,17.06
2022-08-28T02:47:48.892Z,17.05
2022-08-28T02:50:19.815Z,17.05
2022-08-28T02:52:51.693Z,17.02
2022-08-28T02:55:21.536Z,16.96
2022-08-28T02:57:51.512Z,16.96
2022-08-28T03:00:23.211Z,16.92
2022-08-28T03:02:53.316Z,16.87
2022-08-28T03:05:25.000Z,16.87
2022-08-28T03:07:54.554Z,16.85
2022-08-28T03:10:23.015Z,16.82
2022-08-28T03:12:53.176Z,16.83
2022-08-28T03:15:22.031Z,16.80
2022-08-28T03:17:51.231Z,16.78
2022-08-28T03:20:19.678Z,16.79
2022-08-28T03:23:05.719Z,16.79
2022-08-28T03:25:34.581Z,16.74
2022-08-28T03:28:06.399Z,16.77
2022-08-28T03:30:34.920Z,16.78
2022-08-28T03:33:03.474Z,16.79
2022-08-28T03:35:34.332Z,16.76
2022-08-28T03:38:03.269Z,16.76
2022-08-28T03:40:32.375Z,16.74
2022-08-28T03:43:00.889Z,16.72
2022-08-28T03:45:30.816Z,16.75
2022-08-28T03:47:59.249Z,16.75
2022-08-28T03:50:27.510Z,16.69
2022-08-28T03:52:57.735Z,16.70
2022-08-28T03:55:26.784Z,16.71
2022-08-28T03:57:55.038Z,16.72
2022-08-28T04:00:23.637Z,16.73
2022-08-28T04:02:56.377Z,16.80
2022-08-28T04:05:25.012Z,16.79
2022-08-28T04:07:53.485Z,16.82
2022-08-28T04:10:21.704Z,16.84
2022-08-28T04:12:49.932Z,16.78
2022-08-28T04:15:18.374Z,16.79
2022-08-28T04:17:47.785Z,16.73
2022-08-28T04:20:17.607Z,16.73
2022-08-28T04:22:45.909Z,16.71
2022-08-28T04:25:14.591Z,16.70
2022-08-28T04:27:43.405Z,16.70
2022-08-28T04:30:13.046Z,16.59
2022-08-28T04:32:42.243Z,16.57
2022-08-28T04:35:13.757Z,16.45
2022-08-28T04:37:44.288Z,16.54
2022-08-28T04:40:16.554Z,16.57
2022-08-28T04:42:45.272Z,16.38
2022-08-28T04:45:14.727Z,16.53
2022-08-28T04:47:43.517Z,16.54
2022-08-28T04:50:13.346Z,16.44
2022-08-28T04:52:43.263Z,16.56
2022-08-28T04:55:13.305Z,16.63
2022-08-28T04:57:43.555Z,16.61
2022-08-28T05:00:12.720Z,16.67
2022-08-28T05:02:41.269Z,16.71
2022-08-28T05:05:10.328Z,16.71
2022-08-28T05:07:38.722Z,16.74
2022-08-28T05:10:08.272Z,16.71
2022-08-28T05:12:38.443Z,16.69
2022-08-28T05:15:08.085Z,16.71
2022-08-28T05:17:37.475Z,16.67
2022-08-28T05:20:06.866Z,16.71
2022-08-28T05:22:35.395Z,16.76
2022-08-28T05:25:03.907Z,16.72
2022-08-28T05:27:32.237Z,16.73
2022-08-28T05:30:02.324Z,16.76
2022-08-28T05:32:30.931Z,16.79
2022-08-28T05:34:59.687Z,16.73
2022-08-28T05:37:28.126Z,16.73
2022-08-28T05:39:56.420Z,16.72
2022-08-28T05:42:28.846Z,16.81
2022-08-28T05:45:00.115Z,16.84
2022-08-28T05:47:32.736Z,16.85
2022-08-28T05:50:01.052Z,16.78
2022-08-28T05:52:29.965Z,16.84
2022-08-28T05:54:58.643Z,16.83
2022-08-28T05:57:26.940Z,16.93
2022-08-28T05:59:55.224Z,16.93
2022-08-28T06:02:23.488Z,16.93
2022-08-28T06:04:54.764Z,16.94
2022-08-28T06:07:23.065Z,16.94
2022-08-28T06:09:52.122Z,16.98
2022-08-28T06:12:21.240Z,16.98
2022-08-28T06:14:49.708Z,17.02
2022-08-28T06:17:23.654Z,16.99
2022-08-28T06:19:53.804Z,17.10
2022-08-28T06:22:22.331Z,17.15
2022-08-28T06:24:50.561Z,17.25
2022-08-28T06:27:18.967Z,17.31
2022-08-28T06:29:47.321Z,17.36
2022-08-28T06:32:15.738Z,17.38
2022-08-28T06:34:44.010Z,17.45
2022-08-28T06:37:13.732Z,17.48
2022-08-28T06:39:41.956Z,17.51
2022-08-28T06:42:10.709Z,17.52
2022-08-28T06:44:39.763Z,17.55
2022-08-28T06:47:08.051Z,17.60
2022-08-28T06:49:36.271Z,17.74
2022-08-28T06:52:06.285Z,17.86
2022-08-28T06:54:37.616Z,18.10
2022-08-28T06:57:07.523Z,18.30
2022-08-28T06:59:35.742Z,18.62
2022-08-28T07:02:05.819Z,19.19
2022-08-28T07:04:34.298Z,19.77
2022-08-28T07:07:02.998Z,20.12
2022-08-28T07:09:31.575Z,20.56
2022-08-28T07:12:02.532Z,21.08
2022-08-28T07:14:31.299Z,21.18
2022-08-28T07:17:00.234Z,21.30
2022-08-28T07:19:28.628Z,21.48
2022-08-28T07:21:56.939Z,22.64
2022-08-28T07:24:25.145Z,23.55
2022-08-28T07:26:54.435Z,23.03
2022-08-28T07:29:24.334Z,22.45
2022-08-28T07:31:56.002Z,22.07
2022-08-28T07:34:26.887Z,21.65
2022-08-28T07:36:56.411Z,21.45
2022-08-28T07:39:24.673Z,21.43
2022-08-28T07:41:53.239Z,21.34
2022-08-28T07:44:41.958Z,21.11
2022-08-28T07:47:12.199Z,21.19
2022-08-28T07:49:41.738Z,22.05
2022-08-28T07:52:11.299Z,23.56
2022-08-28T07:54:40.736Z,24.81
2022-08-28T07:57:11.052Z,25.27
2022-08-28T07:59:42.990Z,25.19
2022-08-28T08:02:12.189Z,25.84
2022-08-28T08:04:42.074Z,26.22
2022-08-28T08:07:12.984Z,26.66
2022-08-28T08:09:43.661Z,27.03
2022-08-28T08:12:13.592Z,26.33
2022-08-28T08:14:44.165Z,26.49
2022-08-28T08:17:13.868Z,27.23
2022-08-28T08:19:42.232Z,28.04
2022-08-28T08:22:10.716Z,28.35
2022-08-28T08:24:39.123Z,28.04
2022-08-28T08:27:07.773Z,28.12
2022-08-28T08:29:38.350Z,27.63
2022-08-28T08:32:10.664Z,27.22
2022-08-28T08:34:45.878Z,27.39
2022-08-28T08:37:15.077Z,26.86
2022-08-28T08:39:45.051Z,26.68
2022-08-28T08:42:23.578Z,26.75
2022-08-28T08:44:53.400Z,26.60
2022-08-28T08:47:29.718Z,26.24
2022-08-28T08:50:01.204Z,26.48
2022-08-28T08:52:37.711Z,26.80
2022-08-28T08:55:17.201Z,27.15
2022-08-28T08:57:49.362Z,27.56
2022-08-28T09:00:20.436Z,28.29
2022-08-28T09:03:01.374Z,28.82
2022-08-28T09:05:42.684Z,28.60
2022-08-28T09:08:22.784Z,28.37
2022-08-28T09:11:02.367Z,27.95
2022-08-28T09:13:44.077Z,28.00
2022-08-28T09:16:22.160Z,28.44
2022-08-28T09:18:55.108Z,28.41
2022-08-28T09:21:30.280Z,28.65
2022-08-28T09:24:05.854Z,29.17
2022-08-28T09:26:40.346Z,29.28
2022-08-28T09:29:16.026Z,29.08
2022-08-28T09:31:44.575Z,29.44
2022-08-28T09:34:27.473Z,29.90
2022-08-28T09:36:57.549Z,30.05
2022-08-28T09:39:28.313Z,29.74
2022-08-28T09:42:21.401Z,28.64
2022-08-28T09:44:56.352Z,28.49
2022-08-28T09:47:49.488Z,28.66
2022-08-28T09:50:32.716Z,28.96
2022-08-28T09:53:16.078Z,28.96
2022-08-28T09:55:54.790Z,29.11
2022-08-28T09:58:24.515Z,29.68
2022-08-28T10:01:02.127Z,29.82
2022-08-28T10:03:35.379Z,29.41
2022-08-28T10:06:12.445Z,29.90
2022-08-28T10:08:56.060Z,29.74
2022-08-28T10:11:33.435Z,29.63
2022-08-28T10:14:12.906Z,29.39
2022-08-28T10:16:47.888Z,28.28
2022-08-28T10:19:28.205Z,27.96
2022-08-28T10:22:12.160Z,28.00
2022-08-28T10:25:03.484Z,27.93
2022-08-28T10:27:45.532Z,27.78
2022-08-28T10:30:17.747Z,27.92
2022-08-28T10:33:07.075Z,27.98
2022-08-28T10:35:45.160Z,27.89
2022-08-28T10:38:18.361Z,27.47
2022-08-28T10:40:55.196Z,27.59
2022-08-28T10:43:31.693Z,27.68
2022-08-28T10:46:04.983Z,27.66
2022-08-28T10:48:40.228Z,27.78
2022-08-28T10:51:14.790Z,27.52
2022-08-28T10:53:50.210Z,27.23
2022-08-28T10:56:21.841Z,27.26
2022-08-28T10:58:54.054Z,27.48
2022-08-28T11:01:30.404Z,27.33
2022-08-28T11:04:01.466Z,27.13
2022-08-28T11:06:35.173Z,26.94
2022-08-28T11:09:23.813Z,27.09
2022-08-28T11:11:56.449Z,27.36
2022-08-28T11:14:33.858Z,27.52
2022-08-28T11:17:07.390Z,27.56
2022-08-28T11:19:58.923Z,27.85
2022-08-28T11:22:30.287Z,27.90
2022-08-28T11:25:13.174Z,28.01
2022-08-28T11:28:01.900Z,28.35
2022-08-28T11:30:36.388Z,28.56
2022-08-28T11:33:07.913Z,28.75
2022-08-28T11:35:59.952Z,28.73
2022-08-28T11:39:05.095Z,28.60
2022-08-28T11:41:37.020Z,28.60
2022-08-28T11:44:39.651Z,28.53
2022-08-28T11:47:44.196Z,28.46
2022-08-28T11:50:28.373Z,28.57
2022-08-28T11:53:27.270Z,28.42
2022-08-28T11:56:10.739Z,28.69
2022-08-28T11:58:48.902Z,28.89
2022-08-28T12:01:29.335Z,28.86
2022-08-28T12:04:04.957Z,28.76
2022-08-28T12:06:54.598Z,28.72
2022-08-28T12:09:43.757Z,28.70
2022-08-28T12:12:34.108Z,28.67
2022-08-28T12:15:10.347Z,28.73
2022-08-28T12:17:48.524Z,28.48
2022-08-28T12:20:35.908Z,28.34
2022-08-28T12:23:25.854Z,28.14
2022-08-28T12:26:02.385Z,28.28
2022-08-28T12:28:33.744Z,27.97
2022-08-28T12:31:44.657Z,27.94
2022-08-28T12:34:19.969Z,28.06
2022-08-28T12:36:56.163Z,28.39
2022-08-28T12:39:24.849Z,28.44
2022-08-28T12:42:00.422Z,28.44
2022-08-28T12:44:47.807Z,28.33
2022-08-28T12:47:37.931Z,28.00
2022-08-28T12:50:30.038Z,27.99
2022-08-28T12:53:19.832Z,27.84
2022-08-28T12:56:07.812Z,27.98
2022-08-28T12:59:03.812Z,27.77
2022-08-28T13:01:52.293Z,28.21
2022-08-28T13:04:40.808Z,28.19
2022-08-28T13:07:34.021Z,28.19
2022-08-28T13:10:27.759Z,28.26
2022-08-28T13:13:18.250Z,28.41
2022-08-28T13:16:03.766Z,28.42
2022-08-28T13:19:03.814Z,28.46
2022-08-28T13:22:02.200Z,28.38
2022-08-28T13:24:52.732Z,28.42
2022-08-28T13:27:41.768Z,28.70
2022-08-28T13:30:39.803Z,29.23
2022-08-28T13:33:23.758Z,29.59
2022-08-28T13:36:11.747Z,29.66
2022-08-28T13:39:01.866Z,29.86
2022-08-28T13:41:43.953Z,29.91
2022-08-28T13:44:38.741Z,30.12
2022-08-28T13:47:19.971Z,30.14
2022-08-28T13:50:08.834Z,29.98
2022-08-28T13:52:49.941Z,29.42
2022-08-28T13:55:39.734Z,29.39
2022-08-28T13:58:20.940Z,29.61
2022-08-28T14:01:09.756Z,29.85
2022-08-28T14:03:50.134Z,29.94
2022-08-28T14:06:38.733Z,29.52
2022-08-28T14:09:21.223Z,29.35
2022-08-28T14:12:10.850Z,29.47
2022-08-28T14:14:52.635Z,29.64
2022-08-28T14:17:41.701Z,29.77
2022-08-28T14:20:36.697Z,29.46
2022-08-28T14:23:24.925Z,29.22
2022-08-28T14:26:05.753Z,28.93
2022-08-28T14:28:54.953Z,28.84
2022-08-28T14:31:36.754Z,28.73
2022-08-28T14:34:27.673Z,28.67
2022-08-28T14:37:15.675Z,28.47
2022-08-28T14:40:03.726Z,27.89
2022-08-28T14:42:44.902Z,28.19
2022-08-28T14:45:34.679Z,28.50
2022-08-28T14:48:22.640Z,28.55
2022-08-28T14:51:11.658Z,28.66
2022-08-28T14:53:52.861Z,28.48
2022-08-28T14:56:40.675Z,28.25
2022-08-28T14:59:24.882Z,28.22
2022-08-28T15:02:15.639Z,28.21
2022-08-28T15:05:03.647Z,28.34
2022-08-28T15:07:52.033Z,28.57
2022-08-28T15:10:33.628Z,28.49
2022-08-28T15:13:21.962Z,28.39
2022-08-28T15:16:15.549Z,28.39
2022-08-28T15:19:13.598Z,28.39
2022-08-28T15:22:03.594Z,28.36
2022-08-28T15:24:51.635Z,28.46
2022-08-28T15:27:58.616Z,28.52
2022-08-28T15:30:47.217Z,28.50
2022-08-28T15:33:28.619Z,28.38
2022-08-28T15:36:18.822Z,28.07
2022-08-28T15:39:17.599Z,27.79
2022-08-28T15:42:00.488Z,27.48
2022-08-28T15:44:48.591Z,27.32
2022-08-28T15:47:37.561Z,27.28
2022-08-28T15:50:19.944Z,27.21
2022-08-28T15:53:10.574Z,27.05
2022-08-28T15:55:58.580Z,27.22
2022-08-28T15:58:40.501Z,27.23
2022-08-28T16:01:28.642Z,26.94
2022-08-28T16:04:16.799Z,26.98
2022-08-28T16:07:00.806Z,26.91
2022-08-28T16:09:49.835Z,26.70
2022-08-28T16:12:32.570Z,26.80
2022-08-28T16:15:27.552Z,26.91
2022-08-28T16:18:15.641Z,26.95
2022-08-28T16:21:05.038Z,27.03
2022-08-28T16:23:46.657Z,27.05
2022-08-28T16:26:29.669Z,26.78
2022-08-28T16:29:17.534Z,26.63
2022-08-28T16:31:59.350Z,26.40
2022-08-28T16:34:49.534Z,26.03
2022-08-28T16:37:40.170Z,25.92
2022-08-28T16:40:28.681Z,25.88
2022-08-28T16:43:12.166Z,25.83
2022-08-28T16:46:00.505Z,25.86
2022-08-28T16:48:48.727Z,25.96
2022-08-28T16:51:33.510Z,26.01
2022-08-28T16:54:23.707Z,26.08
2022-08-28T16:57:05.493Z,26.00
2022-08-28T16:59:58.528Z,25.96
2022-08-28T17:02:46.546Z,25.93
2022-08-28T17:05:34.600Z,25.90
2022-08-28T17:08:15.900Z,25.72
2022-08-28T17:11:05.487Z,25.28
2022-08-28T17:13:48.670Z,25.14
2022-08-28T17:16:38.501Z,25.10
2022-08-28T17:19:34.463Z,25.14
2022-08-28T17:22:40.633Z,25.14
2022-08-28T17:25:21.857Z,25.09
2022-08-28T17:28:10.493Z,25.03
2022-08-28T17:30:51.670Z,24.87
2022-08-28T17:33:41.445Z,24.72
2022-08-28T17:36:33.983Z,24.75
2022-08-28T17:39:17.930Z,24.54
2022-08-28T17:42:05.441Z,24.49
2022-08-28T17:44:47.366Z,24.32
2022-08-28T17:47:35.542Z,24.29
2022-08-28T17:50:18.669Z,24.27
2022-08-28T17:53:06.423Z,24.20
2022-08-28T17:55:54.393Z,24.11
2022-08-28T17:58:37.538Z,23.91
2022-08-28T18:01:26.442Z,23.82
2022-08-28T18:04:18.009Z,23.72
2022-08-28T18:07:11.655Z,23.68
2022-08-28T18:09:53.372Z,23.45
2022-08-28T18:12:42.399Z,23.14
2022-08-28T18:15:24.624Z,23.06
2022-08-28T18:18:12.759Z,22.84
2022-08-28T18:21:01.315Z,22.77
2022-08-28T18:26:33.412Z,22.53
2022-08-28T18:29:14.570Z,22.45
2022-08-28T18:32:02.370Z,22.38
2022-08-28T18:34:43.554Z,22.26
2022-08-28T18:37:31.374Z,22.17
2022-08-28T18:40:15.794Z,22.12
2022-08-28T18:43:03.343Z,21.96
2022-08-28T18:45:44.607Z,21.87
2022-08-28T18:48:33.364Z,21.89
2022-08-28T18:51:16.530Z,21.93
2022-08-28T18:54:10.365Z,21.83
2022-08-28T18:57:01.375Z,21.71
2022-08-28T18:59:53.354Z,21.58
2022-08-28T19:02:42.458Z,21.50
2022-08-28T19:05:24.794Z,21.40
2022-08-28T19:08:12.507Z,21.34
2022-08-28T19:11:01.338Z,21.22
2022-08-28T19:13:44.534Z,21.13
2022-08-28T19:16:32.428Z,21.10
2022-08-28T19:19:13.852Z,20.95
2022-08-28T19:22:01.305Z,20.87
2022-08-28T19:24:42.643Z,20.83
2022-08-28T19:27:30.289Z,20.74
2022-08-28T19:30:22.280Z,20.67
2022-08-28T19:33:13.212Z,20.56
2022-08-28T19:35:54.252Z,20.52
2022-08-28T19:38:49.287Z,20.50
2022-08-28T19:41:39.262Z,20.43
2022-08-28T19:44:20.505Z,20.39
2022-08-28T19:47:10.257Z,20.36
2022-08-28T19:49:58.250Z,20.32
2022-08-28T19:52:40.506Z,20.22
2022-08-28T19:55:32.241Z,20.14
2022-08-28T19:58:21.241Z,20.04
2022-08-28T20:01:02.682Z,20.02
2022-08-28T20:03:52.243Z,19.92
2022-08-28T20:06:41.452Z,19.81
2022-08-28T20:09:29.485Z,19.79
2022-08-28T20:12:11.219Z,19.73
2022-08-28T20:15:03.280Z,19.59
2022-08-28T20:17:50.140Z,19.51
2022-08-28T20:20:40.245Z,19.49
2022-08-28T20:23:21.525Z,19.41
2022-08-28T20:26:09.221Z,19.38
2022-08-28T20:28:52.704Z,19.27
2022-08-28T20:31:42.333Z,19.25
2022-08-28T20:34:25.434Z,19.18
2022-08-28T20:37:15.332Z,19.12
2022-08-28T20:39:56.484Z,19.09
2022-08-28T20:42:44.221Z,19.04
2022-08-28T20:45:27.483Z,19.00
2022-08-28T20:48:15.347Z,18.94
2022-08-28T20:50:56.667Z,18.88
2022-08-28T20:53:37.609Z,18.87
2022-08-28T20:56:08.474Z,18.76
2022-08-28T20:58:37.228Z,18.74
2022-08-28T21:01:06.010Z,18.68
2022-08-28T21:03:34.438Z,18.70
2022-08-28T21:06:02.948Z,18.66
2022-08-28T21:08:32.725Z,18.64
2022-08-28T21:11:00.975Z,18.55
2022-08-28T21:13:29.411Z,18.53
2022-08-28T21:15:57.732Z,18.51
2022-08-28T21:18:26.036Z,18.46
2022-08-28T21:20:56.611Z,18.46
2022-08-28T21:23:25.192Z,18.47
2022-08-28T21:25:54.972Z,18.41
2022-08-28T21:28:23.323Z,18.33
2022-08-28T21:30:52.469Z,18.34
2022-08-28T21:33:20.757Z,18.30
2022-08-28T21:35:49.881Z,18.28
2022-08-28T21:38:18.475Z,18.29
2022-08-28T21:40:47.111Z,18.25
2022-08-28T21:43:16.827Z,18.22
2022-08-28T21:45:45.344Z,18.14
2022-08-28T21:48:13.801Z,18.14
2022-08-28T21:50:43.925Z,18.11
2022-08-28T21:53:12.564Z,18.07
2022-08-28T21:55:49.106Z,18.05
2022-08-28T21:58:19.450Z,18.03
2022-08-28T22:00:48.777Z,18.00
2022-08-28T22:03:18.661Z,17.96
2022-08-28T22:05:49.954Z,17.98
2022-08-28T22:08:19.799Z,17.99
2022-08-28T22:10:48.508Z,18.01
2022-08-28T22:13:18.911Z,18.06
2022-08-28T22:15:48.806Z,18.04
2022-08-28T22:18:17.961Z,17.99
2022-08-28T22:21:05.741Z,17.93
2022-08-28T22:23:37.323Z,17.81
2022-08-28T22:26:07.112Z,17.75
2022-08-28T22:28:37.057Z,17.67
2022-08-28T22:31:05.647Z,17.74
2022-08-28T22:33:34.713Z,17.78
2022-08-28T22:36:03.598Z,17.84
2022-08-28T22:38:32.925Z,17.81
2022-08-28T22:41:01.182Z,17.75
2022-08-28T22:43:29.999Z,17.71
2022-08-28T22:46:01.804Z,17.69
2022-08-28T22:48:31.516Z,17.68
2022-08-28T22:51:06.042Z,17.67
2022-08-28T22:53:35.653Z,17.64
2022-08-28T22:56:05.873Z,17.61
2022-08-28T22:58:35.265Z,17.60
2022-08-28T23:01:09.270Z,17.60
2022-08-28T23:03:38.107Z,17.56
2022-08-28T23:06:06.693Z,17.53
2022-08-28T23:08:35.291Z,17.57
2022-08-28T23:11:04.410Z,17.50
2022-08-28T23:13:33.770Z,17.48
2022-08-28T23:16:03.679Z,17.44
2022-08-28T23:18:51.882Z,17.41
2022-08-28T23:21:23.300Z,17.39
2022-08-28T23:23:55.479Z,17.39
2022-08-28T23:26:26.941Z,17.44
2022-08-28T23:28:55.209Z,17.47
2022-08-28T23:31:24.183Z,17.51
2022-08-28T23:33:53.994Z,17.53
2022-08-28T23:36:24.047Z,17.52
2022-08-28T23:38:53.336Z,17.50
2022-08-28T23:41:22.412Z,17.49
2022-08-28T23:43:50.964Z,17.43
2022-08-28T23:46:21.425Z,17.41
2022-08-28T23:48:49.901Z,17.42
2022-08-28T23:51:21.919Z,17.40
2022-08-28T23:53:51.079Z,17.31
2022-08-28T23:56:20.918Z,17.32
2022-08-28T23:58:53.214Z,17.31
